EHEH/EIN METAR and TAF weather

Enter ICAO airport designator
Station Type Date Time Source
EHEH METAR 2019/12/13 01:25 UTC NOAA

EHEH 130125Z AUTO 15011KT 130V190 9999 +DZRA FEW007 SCT012 BKN014 04/03 Q0978 GRN


Station Type Date Time Source
EHEH Decoded METAR 2019/12/13 01:25 UTC NOAA

Eindhoven, Netherlands (EHEH) 51-27N 005-25E 28M
Dec 12, 2019 - 08:25 PM EST / 2019.12.13 0125 UTC
Wind: from the SSE (150 degrees) at 13 MPH (11 KT) (direction variable):0
Visibility: greater than 7 mile(s):0
Sky conditions: mostly cloudy
Weather: heavy drizzle, rain
Temperature: 39 F (4 C)
Dew Point: 37 F (3 C)
Relative Humidity: 93%
Pressure (altimeter): 28.88 in. Hg (0978 hPa)
ob: EHEH 130125Z AUTO 15011KT 130V190 9999 +DZRA FEW007 SCT012 BKN014 04/03 Q0978 GRN
cycle: 1

Station Type Date Time Source
EHEH TAF 2019/12/13 00:00 UTC NOAA

TAF EHEH 122349Z 1300/1406 15012G22KT 9999 BKN018
BECMG 1303/1305 BKN012
TEMPO 1304/1314 3000 RADZ SCT008 BKN012 BKN017CB PROB40
TEMPO 1310/1312 VRB02KT
BECMG 1310/1313 27012G22KT
BECMG 1315/1317 23012KT 9999 NSW SCT018 BKN025 PROB30
TEMPO 1316/1320 SCT015CB PROB40
TEMPO 1404/1406 SCT008 BKN012

Example: see airport list